Time;durP1;ratioP1;P1;durP2;ratioP2;P2;SDS_P1;SDS_P2;PMS_P1;PMS_P2;Temp;Humidity;BMP_temperature;BMP_pressure;BME280_temperature;BME280_humidity;BME280_pressure;Samples;Min_cycle;Max_cycle;Signal;HPM_P1;HPM_P2
2022/04/09 00:00:33;;;;;;;8.85;2.05;;;4.40;99.90;;;;;;4944617;28;20097;-73
2022/04/09 00:03:00;;;;;;;8.48;1.45;;;4.10;99.90;;;;;;4970919;28;20046;-73
2022/04/09 00:05:26;;;;;;;7.43;1.45;;;4.50;99.90;;;;;;4952900;29;20051;-73
2022/04/09 00:07:52;;;;;;;6.55;1.50;;;4.30;99.90;;;;;;4952726;29;20047;-73
2022/04/09 00:10:18;;;;;;;9.32;1.60;;;4.40;99.90;;;;;;4936859;29;20418;-73
2022/04/09 00:12:45;;;;;;;8.82;1.38;;;4.20;99.90;;;;;;4953110;29;20078;-73
2022/04/09 00:15:12;;;;;;;4.38;1.27;;;4.10;99.90;;;;;;4936707;29;20057;-73
2022/04/09 00:17:39;;;;;;;5.95;1.40;;;4.10;99.90;;;;;;4952870;29;20061;-73
2022/04/09 00:20:06;;;;;;;8.25;1.60;;;4.40;99.90;;;;;;4952352;29;20051;-73
2022/04/09 00:22:32;;;;;;;9.52;1.55;;;4.30;99.90;;;;;;4952808;28;20047;-73
2022/04/09 00:24:58;;;;;;;6.45;1.40;;;4.40;99.90;;;;;;4952260;29;20122;-73
2022/04/09 00:27:23;;;;;;;7.85;1.70;;;4.40;99.90;;;;;;4936632;29;20432;-73
2022/04/09 00:29:49;;;;;;;5.45;1.30;;;4.20;99.90;;;;;;4949664;28;20557;-73
2022/04/09 00:32:15;;;;;;;6.53;1.70;;;4.20;99.90;;;;;;4952450;29;20051;-76
2022/04/09 00:34:41;;;;;;;7.43;1.67;;;4.00;99.90;;;;;;4947448;28;20287;-73
2022/04/09 00:37:06;;;;;;;7.50;1.52;;;4.40;99.90;;;;;;4949511;28;20117;-73
2022/04/09 00:39:32;;;;;;;9.00;1.60;;;4.40;99.90;;;;;;4959592;28;20190;-72
2022/04/09 00:41:58;;;;;;;5.57;1.45;;;4.00;99.90;;;;;;4948668;29;20079;-74
2022/04/09 00:44:24;;;;;;;4.25;1.20;;;4.10;99.90;;;;;;4951785;28;20155;-73
2022/04/09 00:46:49;;;;;;;8.00;1.77;;;4.40;99.90;;;;;;4968186;28;20090;-73
2022/04/09 00:49:16;;;;;;;9.52;1.70;;;4.20;99.90;;;;;;4950725;29;20306;-74
2022/04/09 00:51:44;;;;;;;6.30;1.30;;;4.40;99.90;;;;;;4933018;29;20115;-74
2022/04/09 00:54:14;;;;;;;5.43;1.38;;;4.40;99.90;;;;;;4949824;29;20406;-74
2022/04/09 00:56:41;;;;;;;5.95;1.20;;;4.40;99.90;;;;;;4951948;28;20094;-74
2022/04/09 00:59:10;;;;;;;4.03;1.05;;;4.20;99.90;;;;;;4951634;29;20074;-74
2022/04/09 01:01:37;;;;;;;4.72;1.13;;;4.50;99.90;;;;;;4935047;29;20058;-75
2022/04/09 01:04:07;;;;;;;3.42;1.00;;;4.30;99.90;;;;;;4951556;29;20039;-74
2022/04/09 01:06:38;;;;;;;10.30;1.40;;;4.10;99.90;;;;;;4953814;28;20051;-74
2022/04/09 01:09:05;;;;;;;5.53;1.20;;;4.30;99.90;;;;;;4946366;29;20043;-74
2022/04/09 01:11:32;;;;;;;4.82;1.15;;;4.30;99.90;;;;;;4968295;28;20042;-74
2022/04/09 01:13:58;;;;;;;;;;;4.00;99.90;;;;;;4951320;28;20090;-74
2022/04/09 01:16:28;;;;;;;5.10;1.17;;;4.00;99.90;;;;;;4951631;29;19922;-74
2022/04/09 01:18:55;;;;;;;5.30;1.05;;;4.00;99.90;;;;;;4921316;28;20039;-74
2022/04/09 01:21:23;;;;;;;4.47;1.00;;;4.00;99.90;;;;;;4951731;29;20054;-73
2022/04/09 01:23:49;;;;;;;4.00;0.88;;;4.10;99.90;;;;;;4952279;28;20035;-75
2022/04/09 01:26:17;;;;;;;7.43;1.10;;;4.30;99.90;;;;;;4951433;29;20588;-73
2022/04/09 01:28:43;;;;;;;5.93;1.13;;;4.20;99.90;;;;;;4950958;29;20134;-73
2022/04/09 01:31:09;;;;;;;5.32;1.25;;;4.30;99.90;;;;;;4951332;28;20482;-74
2022/04/09 01:33:35;;;;;;;7.55;1.08;;;4.30;99.90;;;;;;4950099;29;20058;-73
2022/04/09 01:36:01;;;;;;;4.25;1.10;;;4.10;99.90;;;;;;4951126;29;20051;-73
2022/04/09 01:38:26;;;;;;;6.35;1.63;;;4.40;99.90;;;;;;4935296;29;20035;-73
2022/04/09 01:40:54;;;;;;;6.13;1.17;;;4.10;99.90;;;;;;4932766;29;20039;-74
2022/04/09 01:43:20;;;;;;;5.53;1.10;;;4.30;99.90;;;;;;4951363;29;20082;-74
2022/04/09 01:45:46;;;;;;;5.13;1.25;;;4.10;99.90;;;;;;4920754;29;20801;-74
2022/04/09 01:48:11;;;;;;;7.28;1.20;;;4.00;99.90;;;;;;4951606;29;20047;-74
2022/04/09 01:50:37;;;;;;;5.28;1.77;;;4.20;99.90;;;;;;4955301;29;20046;-74
2022/04/09 01:53:03;;;;;;;6.15;1.45;;;4.10;99.90;;;;;;4956098;28;20094;-74
2022/04/09 01:55:29;;;;;;;5.75;1.17;;;3.80;99.90;;;;;;4954590;29;20484;-73
2022/04/09 01:57:54;;;;;;;7.03;1.20;;;3.80;99.90;;;;;;4954768;29;20146;-78
2022/04/09 02:00:20;;;;;;;5.93;1.13;;;3.80;99.90;;;;;;4952497;29;20047;-78
2022/04/09 02:02:46;;;;;;;7.25;1.42;;;4.00;99.90;;;;;;4954383;28;20809;-73
2022/04/09 02:05:14;;;;;;;5.47;0.85;;;3.70;99.90;;;;;;4954053;28;20039;-73
2022/04/09 02:07:41;;;;;;;9.15;1.33;;;3.70;99.90;;;;;;4951293;29;20032;-74
2022/04/09 02:10:08;;;;;;;7.40;1.30;;;3.70;99.90;;;;;;4954690;29;20039;-74
2022/04/09 02:12:36;;;;;;;5.53;1.35;;;3.70;99.90;;;;;;4970332;28;20046;-74
2022/04/09 02:15:09;;;;;;;9.77;1.77;;;3.90;99.90;;;;;;4923038;29;20070;-74
2022/04/09 02:17:36;;;;;;;6.68;1.45;;;3.70;99.90;;;;;;4954427;29;20512;-74
2022/04/09 02:20:03;;;;;;;6.15;1.10;;;4.00;99.90;;;;;;4938899;29;20660;-73
2022/04/09 02:22:39;;;;;;;4.03;1.10;;;3.80;99.90;;;;;;4952519;29;20078;-73
2022/04/09 02:25:07;;;;;;;6.53;1.20;;;3.70;99.90;;;;;;4967190;28;20055;-73
2022/04/09 02:27:32;;;;;;;6.68;1.42;;;3.70;99.90;;;;;;4954269;29;20122;-74
2022/04/09 02:29:58;;;;;;;5.32;1.15;;;3.70;99.90;;;;;;4935388;29;20127;-74
2022/04/09 02:32:24;;;;;;;6.47;1.20;;;3.50;99.90;;;;;;4944782;29;20051;-74
2022/04/09 02:34:53;;;;;;;4.43;1.05;;;3.80;99.90;;;;;;4921384;29;20050;-74
2022/04/09 02:37:20;;;;;;;7.05;1.60;;;3.80;99.90;;;;;;4952177;29;20110;-74
2022/04/09 02:39:46;;;;;;;15.75;1.73;;;3.80;99.90;;;;;;4937896;29;20137;-74
2022/04/09 02:42:12;;;;;;;8.77;1.73;;;3.80;99.90;;;;;;4937896;29;20122;-74
2022/04/09 02:44:39;;;;;;;6.05;1.20;;;3.90;99.90;;;;;;4954176;29;20043;-74
2022/04/09 02:47:05;;;;;;;;;;;3.80;99.90;;;;;;4922030;29;20039;-74
2022/04/09 02:49:31;;;;;;;6.03;0.98;;;3.80;99.90;;;;;;4952557;28;19977;-74
2022/04/09 02:51:56;;;;;;;2.72;0.90;;;3.90;99.90;;;;;;4936027;28;20075;-73
2022/04/09 02:54:22;;;;;;;5.30;1.23;;;3.80;99.90;;;;;;4970532;28;20130;-73
2022/04/09 02:56:48;;;;;;;4.80;1.15;;;3.60;99.90;;;;;;4938670;29;20457;-73
2022/04/09 02:59:14;;;;;;;6.45;1.13;;;3.60;99.90;;;;;;4964097;28;20061;-73
2022/04/09 03:01:41;;;;;;;4.25;1.10;;;3.80;99.90;;;;;;4957381;28;20039;-73
2022/04/09 03:04:08;;;;;;;3.03;0.95;;;3.80;99.90;;;;;;4954123;28;20058;-73
2022/04/09 03:06:34;;;;;;;4.32;1.00;;;3.80;99.90;;;;;;4940694;29;20054;-74
2022/04/09 03:09:00;;;;;;;6.07;1.15;;;3.60;99.90;;;;;;4953628;29;20046;-74
2022/04/09 03:11:25;;;;;;;9.70;1.38;;;3.70;99.90;;;;;;4953809;29;20079;-74
2022/04/09 03:13:51;;;;;;;5.80;1.30;;;3.80;99.90;;;;;;4937538;29;20042;-73
2022/04/09 03:16:17;;;;;;;9.65;1.30;;;3.70;99.90;;;;;;4953008;29;20045;-74
2022/04/09 03:18:43;;;;;;;4.88;1.20;;;3.90;99.90;;;;;;4953809;29;20078;-74
2022/04/09 03:21:08;;;;;;;6.25;1.30;;;3.80;99.90;;;;;;4953641;29;20062;-74
2022/04/09 03:23:34;;;;;;;7.57;1.45;;;3.70;99.90;;;;;;4937566;29;20043;-75
2022/04/09 03:26:05;;;;;;;7.53;1.30;;;3.90;99.90;;;;;;4949795;29;20573;-75
2022/04/09 03:28:31;;;;;;;5.03;0.90;;;3.90;99.90;;;;;;4948057;29;20051;-75
2022/04/09 03:30:57;;;;;;;4.68;1.20;;;3.70;99.90;;;;;;4953419;29;20054;-74
2022/04/09 03:33:24;;;;;;;4.55;0.90;;;3.70;99.90;;;;;;4936680;29;20507;-73
2022/04/09 03:35:50;;;;;;;5.95;1.20;;;3.70;99.90;;;;;;4936736;29;20058;-73
2022/04/09 03:38:15;;;;;;;6.88;1.20;;;3.80;99.90;;;;;;4958265;28;20046;-73
2022/04/09 03:40:42;;;;;;;6.70;1.10;;;3.60;99.90;;;;;;4952118;29;20047;-73
2022/04/09 03:43:08;;;;;;;6.88;1.17;;;3.60;99.90;;;;;;4952635;28;20039;-75
2022/04/09 03:45:34;;;;;;;4.50;1.08;;;3.60;99.90;;;;;;4952389;29;20098;-74
2022/04/09 03:48:00;;;;;;;3.63;1.00;;;3.60;99.90;;;;;;4964948;28;20089;-73
2022/04/09 03:50:27;;;;;;;4.60;1.10;;;3.40;99.90;;;;;;4969089;28;20227;-74
2022/04/09 03:52:52;;;;;;;5.38;0.90;;;3.30;99.90;;;;;;4948696;29;20031;-74
2022/04/09 03:55:19;;;;;;;7.22;1.10;;;3.30;99.90;;;;;;4941574;29;20106;-73
2022/04/09 03:57:45;;;;;;;5.53;1.00;;;3.40;99.90;;;;;;4936414;29;20047;-74
2022/04/09 04:00:13;;;;;;;7.97;1.67;;;3.40;99.90;;;;;;4952497;29;20087;-74
2022/04/09 04:02:39;;;;;;;4.78;1.00;;;3.30;99.90;;;;;;4966905;28;20039;-74
2022/04/09 04:05:06;;;;;;;9.63;1.50;;;3.50;99.90;;;;;;4951271;29;20150;-74
2022/04/09 04:07:33;;;;;;;7.93;1.35;;;3.30;99.90;;;;;;4934810;29;20534;-74
2022/04/09 04:10:05;;;;;;;;;;;3.50;99.90;;;;;;4936512;29;20094;-74
2022/04/09 04:12:31;;;;;;;7.43;1.10;;;3.40;99.90;;;;;;4952020;29;20012;-74
2022/04/09 04:14:58;;;;;;;9.50;1.23;;;3.40;99.90;;;;;;4952322;29;20131;-74
2022/04/09 04:17:24;;;;;;;5.18;0.90;;;3.50;99.90;;;;;;4952414;29;20058;-74
2022/04/09 04:19:49;;;;;;;4.47;1.08;;;3.50;99.90;;;;;;4952092;29;20043;-74
2022/04/09 04:22:15;;;;;;;3.77;1.00;;;3.40;99.90;;;;;;4949460;29;20047;-74
2022/04/09 04:24:41;;;;;;;5.07;1.00;;;3.50;99.90;;;;;;4952377;29;20052;-74
2022/04/09 04:27:07;;;;;;;5.78;1.23;;;3.50;99.90;;;;;;4919952;29;20564;-74
2022/04/09 04:29:34;;;;;;;9.38;1.08;;;3.60;99.90;;;;;;4952228;29;20478;-74
2022/04/09 04:32:00;;;;;;;4.28;0.77;;;3.60;99.90;;;;;;4951929;28;20043;-74
2022/04/09 04:34:26;;;;;;;5.47;1.27;;;3.50;99.90;;;;;;4935687;29;20057;-75
2022/04/09 04:36:52;;;;;;;6.22;1.10;;;3.50;99.90;;;;;;4951706;29;20055;-73
2022/04/09 04:39:18;;;;;;;4.07;1.00;;;3.50;99.90;;;;;;4950684;29;20130;-74
2022/04/09 04:41:43;;;;;;;5.15;0.95;;;3.50;99.90;;;;;;4951316;29;20126;-74
2022/04/09 04:44:10;;;;;;;5.37;1.27;;;3.40;99.90;;;;;;4951088;29;20047;-74
2022/04/09 04:46:36;;;;;;;4.82;0.95;;;3.40;99.90;;;;;;4951666;29;20101;-74
2022/04/09 04:49:03;;;;;;;6.00;0.90;;;3.50;99.90;;;;;;4951692;29;20470;-73
2022/04/09 04:51:29;;;;;;;5.10;0.80;;;3.50;99.90;;;;;;4952178;28;20117;-73
2022/04/09 04:53:54;;;;;;;5.43;1.08;;;3.30;99.90;;;;;;4950678;29;20766;-74
2022/04/09 04:56:23;;;;;;;6.72;0.93;;;3.40;99.90;;;;;;4950182;29;20074;-74
2022/04/09 04:58:50;;;;;;;3.13;1.15;;;3.40;99.90;;;;;;4935575;29;20047;-74
2022/04/09 05:01:15;;;;;;;;;;;3.30;99.90;;;;;;4951866;29;20133;-74
2022/04/09 05:03:41;;;;;;;7.15;1.30;;;3.30;99.90;;;;;;4951578;28;20390;-74
2022/04/09 05:06:07;;;;;;;5.82;1.23;;;3.40;99.90;;;;;;4967301;28;20050;-74
2022/04/09 05:08:32;;;;;;;4.93;1.27;;;3.30;99.90;;;;;;4915893;29;20432;-74
2022/04/09 05:10:58;;;;;;;6.10;1.65;;;3.30;99.90;;;;;;4934966;28;20047;-74
2022/04/09 05:13:24;;;;;;;5.97;1.30;;;3.40;99.90;;;;;;4954124;29;20039;-74
2022/04/09 05:15:50;;;;;;;10.05;1.08;;;3.50;99.90;;;;;;4951777;29;20039;-74
2022/04/09 05:18:16;;;;;;;6.57;1.40;;;3.50;99.90;;;;;;4953767;28;20822;-74
2022/04/09 05:20:41;;;;;;;6.88;1.30;;;3.70;99.90;;;;;;4951249;29;20051;-74
2022/04/09 05:23:07;;;;;;;9.38;1.65;;;3.70;99.90;;;;;;4951352;28;20078;-74
2022/04/09 05:25:33;;;;;;;7.72;1.83;;;3.80;99.90;;;;;;4958694;28;20111;-74
2022/04/09 05:28:05;;;;;;;5.88;1.33;;;3.90;99.90;;;;;;4934795;29;20483;-74
2022/04/09 05:30:32;;;;;;;6.10;1.20;;;3.90;99.90;;;;;;4965418;28;20042;-74
2022/04/09 05:32:58;;;;;;;6.90;1.35;;;4.00;99.90;;;;;;4954355;28;20121;-74
2022/04/09 05:35:25;;;;;;;6.57;1.27;;;3.90;99.90;;;;;;4935337;29;20047;-73
2022/04/09 05:37:51;;;;;;;6.65;1.20;;;3.90;99.90;;;;;;4950977;29;20194;-74
2022/04/09 05:40:18;;;;;;;4.75;0.98;;;4.00;99.90;;;;;;4933307;29;20052;-74
2022/04/09 05:42:44;;;;;;;2.58;0.93;;;3.90;99.90;;;;;;4935663;29;20562;-74
2022/04/09 05:45:13;;;;;;;4.35;1.10;;;4.00;99.90;;;;;;4934973;29;20055;-75
2022/04/09 05:47:44;;;;;;;7.43;1.30;;;4.20;99.90;;;;;;4932416;29;20135;-74
2022/04/09 05:50:11;;;;;;;10.52;1.38;;;4.20;99.90;;;;;;4939228;29;20544;-75
2022/04/09 05:52:37;;;;;;;;;;;4.20;99.90;;;;;;4949052;29;20043;-73
2022/04/09 05:55:04;;;;;;;5.72;0.90;;;3.80;99.90;;;;;;4945862;29;19941;-75
2022/04/09 05:57:31;;;;;;;7.05;1.38;;;3.50;99.90;;;;;;4951065;29;20035;-78
2022/04/09 05:59:57;;;;;;;3.33;0.80;;;3.70;99.90;;;;;;4950773;29;20434;-79
2022/04/09 06:02:22;;;;;;;4.65;0.90;;;3.50;99.90;;;;;;4966800;28;20049;-78
2022/04/09 06:04:48;;;;;;;5.20;0.82;;;2.70;99.90;;;;;;4951423;28;20479;-79
2022/04/09 06:07:14;;;;;;;6.50;1.08;;;3.70;99.90;;;;;;4933991;29;20050;-78
2022/04/09 06:09:41;;;;;;;4.72;1.20;;;3.70;99.90;;;;;;4940312;29;20051;-78
2022/04/09 06:12:12;;;;;;;6.40;0.82;;;2.80;99.90;;;;;;4950518;28;20498;-78
2022/04/09 06:14:38;;;;;;;6.57;2.05;;;3.20;99.90;;;;;;4948359;28;20044;-78
2022/04/09 06:17:04;;;;;;;4.72;1.10;;;3.00;99.90;;;;;;4951845;28;20047;-78
2022/04/09 06:19:31;;;;;;;8.07;1.40;;;4.10;99.90;;;;;;4942982;28;20545;-78
2022/04/09 06:21:57;;;;;;;7.55;1.40;;;3.80;99.90;;;;;;4963176;28;20042;-78
2022/04/09 06:24:23;;;;;;;10.88;1.48;;;4.40;99.90;;;;;;4955480;28;20043;-77
2022/04/09 06:26:49;;;;;;;9.52;2.00;;;3.60;99.90;;;;;;4944161;29;20081;-77
2022/04/09 06:29:15;;;;;;;12.73;2.58;;;4.70;99.90;;;;;;4953982;28;20038;-78
2022/04/09 06:31:40;;;;;;;12.05;2.00;;;3.80;99.90;;;;;;4967703;28;20406;-77
2022/04/09 06:34:06;;;;;;;10.88;2.45;;;4.70;99.90;;;;;;4934440;29;20073;-77
2022/04/09 06:36:32;;;;;;;7.57;1.63;;;4.60;99.90;;;;;;4953617;28;20058;-78
2022/04/09 06:38:57;;;;;;;7.40;1.65;;;4.30;99.90;;;;;;4933187;29;20050;-78
2022/04/09 06:41:23;;;;;;;8.60;1.90;;;4.60;99.90;;;;;;4938839;29;20039;-78
2022/04/09 06:43:49;;;;;;;9.70;1.60;;;5.10;99.90;;;;;;4953375;28;20122;-78
2022/04/09 06:46:16;;;;;;;8.88;1.75;;;4.10;99.90;;;;;;4952465;29;20114;-78
2022/04/09 06:48:41;;;;;;;;;;;4.10;99.90;;;;;;4952649;28;20044;-77
2022/04/09 06:51:08;;;;;;;12.60;1.98;;;4.70;99.90;;;;;;4945445;29;19925;-79
2022/04/09 06:53:34;;;;;;;6.68;1.85;;;4.90;99.90;;;;;;4947296;29;20754;-77
2022/04/09 06:56:00;;;;;;;8.43;1.90;;;5.30;99.90;;;;;;4954424;29;20035;-75
2022/04/09 06:58:26;;;;;;;14.02;1.98;;;4.30;99.90;;;;;;4953849;29;20170;-78
2022/04/09 07:00:51;;;;;;;16.85;2.33;;;4.80;99.90;;;;;;4952118;29;20039;-78
2022/04/09 07:03:17;;;;;;;9.85;2.05;;;5.30;99.90;;;;;;4953437;28;20125;-79
2022/04/09 07:05:43;;;;;;;10.25;1.70;;;5.40;99.90;;;;;;4951983;28;20074;-78
2022/04/09 07:08:09;;;;;;;9.15;1.80;;;5.60;99.90;;;;;;4954439;28;20053;-80
2022/04/09 07:10:39;;;;;;;14.05;2.20;;;5.30;99.90;;;;;;4954330;29;20054;-78
2022/04/09 07:13:07;;;;;;;8.15;1.67;;;5.90;99.90;;;;;;4953356;28;20058;-79
2022/04/09 07:15:34;;;;;;;10.35;1.80;;;5.90;99.90;;;;;;4937903;29;20039;-79
2022/04/09 07:18:00;;;;;;;9.52;1.55;;;5.90;99.90;;;;;;4937365;29;20039;-79
2022/04/09 07:20:26;;;;;;;7.93;1.52;;;5.70;99.90;;;;;;4943870;29;20316;-79
2022/04/09 07:22:52;;;;;;;9.43;1.67;;;5.80;99.90;;;;;;4945735;29;20478;-77
2022/04/09 07:25:18;;;;;;;;;;;5.90;99.90;;;;;;4962980;28;20058;-77
2022/04/09 07:27:45;;;;;;;8.38;1.85;;;5.30;99.90;;;;;;4923993;29;20633;-77
2022/04/09 07:30:20;;;;;;;8.70;1.50;;;6.00;99.90;;;;;;4958854;28;20438;-77
2022/04/09 07:32:47;;;;;;;10.48;1.92;;;6.00;99.90;;;;;;4952730;28;20051;-76
2022/04/09 07:35:16;;;;;;;5.22;1.30;;;5.30;99.90;;;;;;4948390;29;20071;-78
2022/04/09 07:37:44;;;;;;;13.68;1.50;;;5.20;99.90;;;;;;4952748;28;20546;-78
2022/04/09 07:40:12;;;;;;;9.40;1.58;;;6.00;99.90;;;;;;4948074;29;20044;-77
2022/04/09 07:42:39;;;;;;;10.60;1.73;;;5.80;99.90;;;;;;4951176;28;20047;-77
2022/04/09 07:45:05;;;;;;;14.43;1.98;;;6.30;99.90;;;;;;4946090;28;20055;-77
2022/04/09 07:47:31;;;;;;;7.35;1.50;;;6.10;99.90;;;;;;4953265;29;20058;-78
2022/04/09 07:49:57;;;;;;;10.35;1.73;;;5.80;99.90;;;;;;4932543;29;20046;-77
2022/04/09 07:52:23;;;;;;;8.05;1.30;;;5.70;99.90;;;;;;4952114;28;20398;-77
2022/04/09 07:54:48;;;;;;;8.43;1.35;;;6.00;99.90;;;;;;4950698;29;20036;-83
2022/04/09 07:57:14;;;;;;;7.88;1.58;;;5.50;99.90;;;;;;4952303;29;20396;-77
2022/04/09 07:59:40;;;;;;;10.18;1.73;;;5.90;99.90;;;;;;4949659;28;20049;-77
2022/04/09 08:02:06;;;;;;;10.27;1.55;;;6.20;99.90;;;;;;4952510;29;20086;-77
2022/04/09 08:04:31;;;;;;;12.15;1.98;;;6.50;99.90;;;;;;4952467;29;20062;-77
2022/04/09 08:06:57;;;;;;;12.30;1.83;;;6.40;99.90;;;;;;4946813;29;20046;-77
2022/04/09 08:09:23;;;;;;;13.70;1.88;;;6.50;99.90;;;;;;4952213;29;20068;-78
2022/04/09 08:11:49;;;;;;;5.70;1.42;;;6.40;99.90;;;;;;4951489;29;20493;-77
2022/04/09 08:14:14;;;;;;;10.02;1.77;;;6.40;99.90;;;;;;4950914;28;20043;-77
2022/04/09 08:16:40;;;;;;;8.13;1.80;;;6.00;99.90;;;;;;4949769;29;20498;-77
2022/04/09 08:19:07;;;;;;;12.40;2.03;;;6.10;99.90;;;;;;4951530;28;20090;-77
2022/04/09 08:21:33;;;;;;;16.30;2.10;;;6.00;99.90;;;;;;4934588;29;21085;-77
2022/04/09 08:23:59;;;;;;;12.43;1.95;;;6.30;99.90;;;;;;4951332;28;20038;-77
2022/04/09 08:26:25;;;;;;;9.60;1.52;;;6.60;99.90;;;;;;4951994;28;20086;-77
2022/04/09 08:28:51;;;;;;;12.10;1.85;;;6.40;99.90;;;;;;4950581;28;20121;-78
2022/04/09 08:31:17;;;;;;;9.60;2.00;;;6.80;99.90;;;;;;4950691;28;20431;-79
2022/04/09 08:33:42;;;;;;;10.15;1.63;;;6.60;99.90;;;;;;4949794;28;20093;-79
2022/04/09 08:36:08;;;;;;;9.73;1.80;;;6.80;99.90;;;;;;4947933;29;20437;-78
2022/04/09 08:38:34;;;;;;;9.48;1.70;;;6.60;99.90;;;;;;4951726;28;20043;-77
2022/04/09 08:41:03;;;;;;;8.40;1.70;;;6.90;99.90;;;;;;4951703;28;20039;-78
2022/04/09 08:43:32;;;;;;;12.75;1.95;;;7.20;99.90;;;;;;4951430;28;20057;-77
2022/04/09 08:46:02;;;;;;;9.13;1.80;;;7.30;99.90;;;;;;4953424;28;20426;-78
2022/04/09 08:48:28;;;;;;;9.55;1.80;;;7.30;99.90;;;;;;4951703;29;20082;-76
2022/04/09 08:50:54;;;;;;;;;;;7.20;99.90;;;;;;4953371;28;20057;-77
2022/04/09 08:53:20;;;;;;;9.20;2.03;;;7.00;99.90;;;;;;4951815;29;19918;-77
2022/04/09 08:55:48;;;;;;;7.97;1.52;;;7.00;99.90;;;;;;4951933;29;20057;-76
2022/04/09 08:58:14;;;;;;;3.35;0.80;;;6.90;99.90;;;;;;4935708;29;20141;-76
2022/04/09 09:00:42;;;;;;;7.30;0.80;;;6.20;99.90;;;;;;4950964;28;20051;-76
2022/04/09 09:03:10;;;;;;;4.25;1.10;;;5.40;99.90;;;;;;4945443;29;20039;-76
2022/04/09 09:05:52;;;;;;;6.47;1.25;;;5.00;99.90;;;;;;4950114;29;20051;-77
2022/04/09 09:08:38;;;;;;;4.13;0.70;;;4.80;99.90;;;;;;4950611;29;20043;-76
2022/04/09 09:11:04;;;;;;;2.97;0.43;;;4.50;99.90;;;;;;4933847;29;20494;-77
2022/04/09 09:13:29;;;;;;;4.47;1.20;;;4.70;99.90;;;;;;4950641;29;20118;-77
2022/04/09 09:15:55;;;;;;;2.50;0.55;;;5.00;99.90;;;;;;4934209;29;20098;-77
2022/04/09 09:18:26;;;;;;;3.15;0.73;;;5.40;99.90;;;;;;4937883;28;20039;-77
2022/04/09 09:20:56;;;;;;;6.70;1.20;;;5.70;99.90;;;;;;4950541;29;20047;-77
2022/04/09 09:23:25;;;;;;;4.90;1.15;;;6.00;99.90;;;;;;4934491;29;20046;-77
2022/04/09 09:25:53;;;;;;;5.38;1.20;;;6.40;99.90;;;;;;4954092;28;20050;-77
2022/04/09 09:28:40;;;;;;;8.88;1.48;;;6.60;99.90;;;;;;4952791;28;20047;-77
2022/04/09 09:31:05;;;;;;;7.13;1.20;;;6.80;99.90;;;;;;4958118;28;20474;-78
2022/04/09 09:33:31;;;;;;;5.65;1.42;;;6.90;99.90;;;;;;4934964;29;20066;-78
2022/04/09 09:36:01;;;;;;;5.28;1.25;;;7.10;99.90;;;;;;4927936;29;20473;-78
2022/04/09 09:38:28;;;;;;;7.75;1.35;;;7.40;99.90;;;;;;4950382;29;20058;-76
2022/04/09 09:40:55;;;;;;;7.63;1.30;;;7.70;99.90;;;;;;4951307;29;20110;-77
2022/04/09 09:43:23;;;;;;;4.63;1.30;;;7.90;99.90;;;;;;4937052;28;20043;-77
2022/04/09 09:45:50;;;;;;;5.90;1.20;;;7.60;99.90;;;;;;4970729;28;20465;-76
2022/04/09 09:48:21;;;;;;;4.95;1.05;;;6.70;99.90;;;;;;4948548;28;20413;-76
2022/04/09 09:50:48;;;;;;;4.18;0.90;;;5.50;99.90;;;;;;4955506;28;20039;-77
2022/04/09 09:53:14;;;;;;;;;;;4.90;99.90;;;;;;4940969;28;20043;-77
2022/04/09 09:55:43;;;;;;;6.00;0.90;;;4.70;99.90;;;;;;4955722;28;19922;-77
2022/04/09 09:58:16;;;;;;;4.35;0.70;;;4.60;99.90;;;;;;4928695;28;20043;-78
2022/04/09 10:00:43;;;;;;;3.78;0.60;;;4.90;99.90;;;;;;4952962;28;20114;-77
2022/04/09 10:03:13;;;;;;;3.53;0.50;;;5.20;99.90;;;;;;4957709;28;20047;-77
2022/04/09 10:05:40;;;;;;;1.45;0.30;;;5.60;99.90;;;;;;4965699;28;20046;-77
2022/04/09 10:08:07;;;;;;;1.35;0.45;;;6.00;99.90;;;;;;4954852;29;20103;-77
2022/04/09 10:10:37;;;;;;;3.55;0.60;;;6.20;99.90;;;;;;4954206;29;20047;-77
2022/04/09 10:13:07;;;;;;;2.40;0.43;;;6.50;99.90;;;;;;4938445;29;20039;-77
2022/04/09 10:15:33;;;;;;;0.60;0.20;;;6.40;99.90;;;;;;4953283;29;20082;-77
2022/04/09 10:18:01;;;;;;;1.55;0.40;;;6.60;99.90;;;;;;4954047;28;20047;-77
2022/04/09 10:20:29;;;;;;;2.95;0.35;;;6.80;99.90;;;;;;4937370;29;20086;-77
2022/04/09 10:23:01;;;;;;;2.28;0.70;;;7.00;99.90;;;;;;4936725;29;20497;-77
2022/04/09 10:25:30;;;;;;;4.68;0.70;;;7.00;99.90;;;;;;4953137;28;20058;-77
2022/04/09 10:28:01;;;;;;;3.28;0.90;;;7.20;99.90;;;;;;4952698;29;20055;-77
2022/04/09 10:30:28;;;;;;;4.00;0.80;;;7.40;99.90;;;;;;4947954;28;20047;-77
2022/04/09 10:33:00;;;;;;;5.60;0.93;;;7.20;99.90;;;;;;4924404;29;20052;-77
2022/04/09 10:35:26;;;;;;;6.15;1.25;;;7.50;99.90;;;;;;4953728;29;20253;-77
2022/04/09 10:38:07;;;;;;;4.40;0.90;;;7.60;99.90;;;;;;4952558;29;20047;-77
2022/04/09 10:41:01;;;;;;;4.13;0.82;;;8.10;99.90;;;;;;4951830;29;21273;-77
2022/04/09 10:43:28;;;;;;;2.63;0.52;;;8.00;99.90;;;;;;4916650;28;20077;-77
2022/04/09 10:46:00;;;;;;;2.28;0.57;;;8.10;99.90;;;;;;4953800;28;20463;-77
2022/04/09 10:48:36;;;;;;;4.20;0.63;;;8.00;99.90;;;;;;4960097;28;20454;-77
2022/04/09 10:51:08;;;;;;;2.85;0.70;;;7.70;99.90;;;;;;4954099;28;20051;-77
2022/04/09 10:53:35;;;;;;;3.70;0.60;;;7.90;99.90;;;;;;4953371;28;20521;-77
2022/04/09 10:56:13;;;;;;;4.32;0.73;;;8.20;99.90;;;;;;4953477;29;20042;-78
2022/04/09 10:59:13;;;;;;;5.63;0.70;;;8.10;99.90;;;;;;4952946;29;20062;-77
2022/04/09 11:01:51;;;;;;;5.75;1.10;;;8.30;99.90;;;;;;4953265;29;20078;-77
2022/04/09 11:04:32;;;;;;;3.75;0.70;;;8.40;99.90;;;;;;4935420;28;20056;-77
2022/04/09 11:07:07;;;;;;;2.70;0.80;;;8.70;99.90;;;;;;4954829;28;20043;-77
2022/04/09 11:09:57;;;;;;;3.05;0.65;;;8.80;99.90;;;;;;4952706;29;20115;-77
2022/04/09 11:12:41;;;;;;;6.32;1.20;;;9.00;99.90;;;;;;4952384;28;20051;-78
2022/04/09 11:15:11;;;;;;;4.22;0.70;;;9.10;99.90;;;;;;4949324;29;20050;-77
2022/04/09 11:17:38;;;;;;;5.38;1.25;;;8.60;99.90;;;;;;4937231;29;20051;-77
2022/04/09 11:20:12;;;;;;;4.35;1.10;;;8.30;99.90;;;;;;4952756;29;20049;-78
2022/04/09 11:22:40;;;;;;;4.15;1.02;;;8.30;99.90;;;;;;4951460;29;20047;-78
2022/04/09 11:25:08;;;;;;;6.47;1.20;;;8.10;99.90;;;;;;4920064;29;20047;-76
2022/04/09 11:27:35;;;;;;;5.78;1.38;;;7.80;99.90;;;;;;4951869;29;20046;-76
2022/04/09 11:30:02;;;;;;;5.95;1.50;;;8.00;99.90;;;;;;4944660;28;20035;-76
2022/04/09 11:32:28;;;;;;;6.10;1.45;;;8.20;99.90;;;;;;4953264;28;20031;-76
2022/04/09 11:34:56;;;;;;;3.85;0.98;;;8.60;99.90;;;;;;4969278;28;20455;-77
2022/04/09 11:37:26;;;;;;;4.50;0.95;;;8.50;99.90;;;;;;4962079;28;20053;-76
2022/04/09 11:39:53;;;;;;;4.22;1.00;;;8.20;99.90;;;;;;4967190;28;20510;-77
2022/04/09 11:42:19;;;;;;;5.32;1.08;;;8.10;99.90;;;;;;4953860;28;20054;-76
2022/04/09 11:44:45;;;;;;;6.22;1.25;;;7.90;99.90;;;;;;4946772;28;20042;-77
2022/04/09 11:47:23;;;;;;;5.03;1.17;;;8.10;99.90;;;;;;4945226;29;20411;-77
2022/04/09 11:49:50;;;;;;;6.63;1.17;;;8.80;99.90;;;;;;4936637;29;20416;-76
2022/04/09 11:52:29;;;;;;;3.75;0.85;;;9.20;99.90;;;;;;4952865;29;20502;-76
2022/04/09 11:54:56;;;;;;;4.00;0.90;;;8.90;99.90;;;;;;4956000;28;20031;-77
2022/04/09 11:57:22;;;;;;;5.53;1.30;;;8.70;99.90;;;;;;4952145;28;20113;-77
2022/04/09 11:59:53;;;;;;;6.10;1.20;;;8.60;99.90;;;;;;4952078;28;20110;-77
2022/04/09 12:02:25;;;;;;;6.25;1.20;;;8.30;99.90;;;;;;4952320;28;20055;-77
2022/04/09 12:04:52;;;;;;;4.85;0.98;;;8.40;99.90;;;;;;4962436;28;20059;-77
2022/04/09 12:07:18;;;;;;;7.05;1.40;;;8.70;99.90;;;;;;4957779;28;20502;-77
2022/04/09 12:09:44;;;;;;;;;;;9.20;99.90;;;;;;4952098;28;20058;-78
2022/04/09 12:12:10;;;;;;;5.72;0.82;;;9.40;99.90;;;;;;4962305;28;19933;-78
2022/04/09 12:14:36;;;;;;;;;;;9.30;99.90;;;;;;4939915;28;20043;-77
2022/04/09 12:17:09;;;;;;;4.97;0.70;;;8.90;99.90;;;;;;4958157;28;20278;-77
2022/04/09 12:19:35;;;;;;;2.50;0.70;;;9.10;99.90;;;;;;4935995;29;20455;-77
2022/04/09 12:22:30;;;;;;;4.07;0.75;;;9.50;99.90;;;;;;4951618;29;20062;-76
2022/04/09 12:24:57;;;;;;;3.42;0.77;;;9.50;99.90;;;;;;4924377;29;20118;-77
2022/04/09 12:27:44;;;;;;;5.57;0.90;;;9.60;99.90;;;;;;4950986;29;20047;-77
2022/04/09 12:30:14;;;;;;;4.40;1.00;;;9.40;99.90;;;;;;4934990;29;20050;-77
2022/04/09 12:32:41;;;;;;;4.07;0.82;;;9.40;99.90;;;;;;4935587;29;20074;-77
2022/04/09 12:35:09;;;;;;;5.18;1.00;;;9.40;99.90;;;;;;4951657;28;20047;-75
2022/04/09 12:37:46;;;;;;;6.00;1.17;;;9.50;99.90;;;;;;4951997;29;20043;-79
2022/04/09 12:40:18;;;;;;;4.82;1.00;;;9.40;99.90;;;;;;4951475;28;20039;-78
2022/04/09 12:42:46;;;;;;;4.00;0.90;;;9.50;99.90;;;;;;4950236;29;20126;-78
2022/04/09 12:45:16;;;;;;;5.60;1.23;;;9.40;99.90;;;;;;4936833;29;20057;-77
2022/04/09 12:47:52;;;;;;;4.57;1.20;;;9.20;99.90;;;;;;4950678;29;20130;-77
2022/04/09 12:50:24;;;;;;;4.45;1.00;;;9.00;99.90;;;;;;4948616;28;20441;-77
2022/04/09 12:52:55;;;;;;;5.45;1.10;;;9.40;99.90;;;;;;4936796;28;20065;-77
2022/04/09 12:55:24;;;;;;;3.65;1.20;;;9.40;99.90;;;;;;4934344;29;20058;-76
2022/04/09 12:57:50;;;;;;;5.88;1.00;;;9.50;99.90;;;;;;4952724;28;20065;-77
2022/04/09 13:00:16;;;;;;;6.22;1.10;;;9.70;99.90;;;;;;4951261;29;20051;-78
2022/04/09 13:02:42;;;;;;;;;;;9.90;99.90;;;;;;4966567;28;20090;-77